createdAt,value
2019-05-26T00:00:19.442Z,2.83
2019-05-26T00:02:47.749Z,3.43
2019-05-26T00:05:16.157Z,3.93
2019-05-26T00:07:44.591Z,3.00
2019-05-26T00:10:13.142Z,3.37
2019-05-26T00:12:41.543Z,3.50
2019-05-26T00:15:09.956Z,3.77
2019-05-26T00:17:38.311Z,2.67
2019-05-26T00:20:07.502Z,3.23
2019-05-26T00:22:36.126Z,3.47
2019-05-26T00:25:04.790Z,3.67
2019-05-26T00:27:43.679Z,3.23
2019-05-26T00:30:12.390Z,3.80
2019-05-26T00:32:40.711Z,4.10
2019-05-26T00:35:09.142Z,3.43
2019-05-26T00:37:48.587Z,4.60
2019-05-26T00:40:08.218Z,3.90
2019-05-26T00:42:36.998Z,3.30
2019-05-26T00:45:05.782Z,3.57
2019-05-26T00:47:34.458Z,3.07
2019-05-26T00:50:02.877Z,3.33
2019-05-26T00:52:31.197Z,3.57
2019-05-26T00:54:59.529Z,3.37
2019-05-26T00:57:27.903Z,3.50
2019-05-26T00:59:56.569Z,3.10
2019-05-26T01:02:24.927Z,4.20
2019-05-26T01:04:53.314Z,3.27
2019-05-26T01:07:21.650Z,3.33
2019-05-26T01:09:50.300Z,3.23
2019-05-26T01:12:19.205Z,3.60
2019-05-26T01:14:47.565Z,3.63
2019-05-26T01:17:16.203Z,3.53
2019-05-26T01:19:44.559Z,3.90
2019-05-26T01:22:13.212Z,3.60
2019-05-26T01:24:42.006Z,3.17
2019-05-26T01:27:10.706Z,3.40
2019-05-26T01:29:39.018Z,3.17
2019-05-26T01:32:07.342Z,3.57
2019-05-26T01:34:36.037Z,4.07
2019-05-26T01:37:05.243Z,3.53
2019-05-26T01:39:33.615Z,3.83
2019-05-26T01:42:01.938Z,4.47
2019-05-26T01:44:30.254Z,4.20
2019-05-26T01:46:58.864Z,4.20
2019-05-26T01:49:27.551Z,4.10
2019-05-26T01:51:55.961Z,4.13
2019-05-26T01:54:24.278Z,4.40
2019-05-26T01:56:52.634Z,4.53
2019-05-26T01:59:20.960Z,4.63
2019-05-26T02:01:49.314Z,5.07
2019-05-26T02:04:17.626Z,3.63
2019-05-26T02:06:46.002Z,3.87
2019-05-26T02:09:14.695Z,4.23
2019-05-26T02:11:44.418Z,4.10
2019-05-26T02:14:14.629Z,3.73
2019-05-26T02:16:42.794Z,4.20
2019-05-26T02:19:11.194Z,4.20
2019-05-26T02:21:39.810Z,3.70
2019-05-26T02:24:08.150Z,4.30
2019-05-26T02:26:36.846Z,4.77
2019-05-26T02:29:05.631Z,3.80
2019-05-26T02:31:35.049Z,3.93
2019-05-26T02:34:03.468Z,4.00
2019-05-26T02:36:32.501Z,4.30
2019-05-26T02:39:03.352Z,4.83
2019-05-26T02:41:30.879Z,3.87
2019-05-26T02:43:59.195Z,3.40
2019-05-26T02:46:27.523Z,3.83
2019-05-26T02:48:56.139Z,3.80
2019-05-26T02:51:24.476Z,4.27
2019-05-26T02:53:52.793Z,4.70
2019-05-26T02:56:21.372Z,3.80
2019-05-26T02:58:49.697Z,3.80
2019-05-26T03:01:18.880Z,4.17
2019-05-26T03:03:47.267Z,5.27
2019-05-26T03:06:15.993Z,4.20
2019-05-26T03:08:44.507Z,4.77
2019-05-26T03:11:12.994Z,4.80
2019-05-26T03:13:42.056Z,4.47
2019-05-26T03:16:10.961Z,4.10
2019-05-26T03:18:40.269Z,4.43
2019-05-26T03:21:10.005Z,4.37
2019-05-26T03:23:39.943Z,4.47
2019-05-26T03:26:09.794Z,4.20
2019-05-26T03:28:38.305Z,5.07
2019-05-26T03:31:06.693Z,4.53
2019-05-26T03:33:35.098Z,6.57
2019-05-26T03:36:03.859Z,5.80
2019-05-26T03:38:32.257Z,5.47
2019-05-26T03:41:00.573Z,5.90
2019-05-26T03:43:28.894Z,5.83
2019-05-26T03:46:05.493Z,6.20
2019-05-26T03:48:34.152Z,6.57
2019-05-26T03:51:02.480Z,6.57
2019-05-26T03:53:31.136Z,5.20
2019-05-26T03:55:59.459Z,5.20
2019-05-26T03:58:27.788Z,6.87
2019-05-26T04:00:56.106Z,5.97
2019-05-26T04:03:24.740Z,6.27
2019-05-26T04:05:53.055Z,7.47
2019-05-26T04:08:21.400Z,8.80
2019-05-26T04:10:49.727Z,9.50
2019-05-26T04:13:18.055Z,8.67
2019-05-26T04:15:46.369Z,8.53
2019-05-26T04:18:14.724Z,9.73
2019-05-26T04:20:45.780Z,8.73
2019-05-26T04:23:13.127Z,9.07
2019-05-26T04:25:41.492Z,9.30
2019-05-26T04:28:10.186Z,9.63
2019-05-26T04:30:38.530Z,8.23
2019-05-26T04:33:06.878Z,9.83
2019-05-26T04:35:35.200Z,8.40
2019-05-26T04:38:03.926Z,8.90
2019-05-26T04:40:32.251Z,9.47
2019-05-26T04:43:00.634Z,8.17
2019-05-26T04:45:29.351Z,7.90
2019-05-26T04:47:57.706Z,7.83
2019-05-26T04:50:26.023Z,7.87
2019-05-26T04:53:06.104Z,6.27
2019-05-26T04:55:24.439Z,6.03
2019-05-26T04:57:53.408Z,7.87
2019-05-26T05:00:22.083Z,7.63
2019-05-26T05:02:50.482Z,7.00
2019-05-26T05:05:18.800Z,7.13
2019-05-26T05:07:47.442Z,7.57
2019-05-26T05:10:16.125Z,6.43
2019-05-26T05:12:44.804Z,7.20
2019-05-26T05:15:13.234Z,7.17
2019-05-26T05:17:41.874Z,6.43
2019-05-26T05:20:10.670Z,6.50
2019-05-26T05:22:39.092Z,6.50
2019-05-26T05:25:14.254Z,7.17
2019-05-26T05:27:37.758Z,6.50
2019-05-26T05:30:06.710Z,6.60
2019-05-26T05:32:35.036Z,6.30
2019-05-26T05:35:03.434Z,6.47
2019-05-26T05:37:31.787Z,6.43
2019-05-26T05:40:00.470Z,7.13
2019-05-26T05:42:28.783Z,6.00
2019-05-26T05:44:57.219Z,6.47
2019-05-26T05:47:25.640Z,6.63
2019-05-26T05:49:54.239Z,6.20
2019-05-26T05:52:23.046Z,5.80
2019-05-26T05:54:51.681Z,6.00
2019-05-26T05:57:20.017Z,6.20
2019-05-26T05:59:48.631Z,6.23
2019-05-26T06:02:17.251Z,5.30
2019-05-26T06:04:45.607Z,5.83
2019-05-26T06:07:14.408Z,5.83
2019-05-26T06:09:43.179Z,5.90
2019-05-26T06:12:11.563Z,5.40
2019-05-26T06:14:40.063Z,5.60
2019-05-26T06:17:10.573Z,5.70
2019-05-26T06:19:38.859Z,6.30
2019-05-26T06:22:07.346Z,6.10
2019-05-26T06:24:35.738Z,6.47
2019-05-26T06:27:04.246Z,6.67
2019-05-26T06:29:32.987Z,6.70
2019-05-26T06:32:01.371Z,7.17
2019-05-26T06:34:29.859Z,6.50
2019-05-26T06:36:58.543Z,5.23
2019-05-26T06:39:27.222Z,6.27
2019-05-26T06:41:55.648Z,6.27
2019-05-26T06:44:24.123Z,6.73
2019-05-26T06:46:52.530Z,7.00
2019-05-26T06:49:21.155Z,8.03
2019-05-26T06:51:49.559Z,6.50
2019-05-26T06:54:17.990Z,7.27
2019-05-26T06:56:46.383Z,6.90
2019-05-26T06:59:14.788Z,6.90
2019-05-26T07:01:43.150Z,7.20
2019-05-26T07:04:11.483Z,7.10
2019-05-26T07:06:40.126Z,8.90
2019-05-26T07:09:08.675Z,8.43
2019-05-26T07:11:50.488Z,8.40
2019-05-26T07:14:07.144Z,8.00
2019-05-26T07:16:38.411Z,7.30
2019-05-26T07:19:05.742Z,7.90
2019-05-26T07:21:34.415Z,8.33
2019-05-26T07:24:03.067Z,7.40
2019-05-26T07:26:31.491Z,8.80
2019-05-26T07:28:59.823Z,8.23
2019-05-26T07:31:28.554Z,9.67
2019-05-26T07:33:57.023Z,9.63
2019-05-26T07:36:25.442Z,8.73
2019-05-26T07:38:53.786Z,9.80
2019-05-26T07:41:22.153Z,10.87
2019-05-26T07:43:50.630Z,9.73
2019-05-26T07:46:19.105Z,12.00
2019-05-26T07:48:47.551Z,11.70
2019-05-26T07:51:15.886Z,11.20
2019-05-26T07:53:44.234Z,13.83
2019-05-26T07:56:12.849Z,11.20
2019-05-26T07:58:42.279Z,13.57
2019-05-26T08:01:10.630Z,13.13
2019-05-26T08:03:38.994Z,13.03
2019-05-26T08:06:07.446Z,14.40
2019-05-26T08:08:36.185Z,12.90
2019-05-26T08:11:04.538Z,13.67
2019-05-26T08:13:32.865Z,14.70
2019-05-26T08:16:01.230Z,13.93
2019-05-26T08:18:29.600Z,14.13
2019-05-26T08:20:58.048Z,14.57
2019-05-26T08:23:26.665Z,13.50
2019-05-26T08:25:55.046Z,13.10
2019-05-26T08:28:23.731Z,13.87
2019-05-26T08:30:52.138Z,12.07
2019-05-26T08:33:20.802Z,12.90
2019-05-26T08:35:49.195Z,11.40
2019-05-26T08:38:17.539Z,11.43
2019-05-26T08:40:45.971Z,12.90
2019-05-26T08:43:14.449Z,10.97
2019-05-26T08:45:43.148Z,10.93
2019-05-26T08:48:11.623Z,9.70
2019-05-26T08:50:39.987Z,12.50
2019-05-26T08:53:08.353Z,10.40
2019-05-26T08:55:36.698Z,9.87
2019-05-26T08:58:05.183Z,9.70
2019-05-26T09:00:33.747Z,8.47
2019-05-26T09:03:02.544Z,8.87
2019-05-26T09:05:31.283Z,8.57
2019-05-26T09:08:00.114Z,7.77
2019-05-26T09:10:28.723Z,7.47
2019-05-26T09:13:01.303Z,7.03
2019-05-26T09:15:27.114Z,6.83
2019-05-26T09:17:55.845Z,7.40
2019-05-26T09:20:24.247Z,8.67
2019-05-26T09:22:52.560Z,7.47
2019-05-26T09:25:20.898Z,7.90
2019-05-26T09:27:49.215Z,7.40
2019-05-26T09:30:17.730Z,6.83
2019-05-26T09:32:46.055Z,6.20
2019-05-26T09:35:15.695Z,5.87
2019-05-26T09:37:44.040Z,6.23
2019-05-26T09:40:12.985Z,5.60
2019-05-26T09:42:41.600Z,6.43
2019-05-26T09:45:10.218Z,6.40
2019-05-26T09:47:38.964Z,6.70
2019-05-26T09:50:07.979Z,6.63
2019-05-26T09:52:37.737Z,6.00
2019-05-26T09:55:06.343Z,5.90
2019-05-26T09:57:34.773Z,5.30
2019-05-26T10:00:03.727Z,5.33
2019-05-26T10:02:32.152Z,5.97
2019-05-26T10:05:00.545Z,6.10
2019-05-26T10:07:28.886Z,6.37
2019-05-26T10:09:57.333Z,5.23
2019-05-26T10:12:26.359Z,6.03
2019-05-26T10:14:54.687Z,5.60
2019-05-26T10:17:23.441Z,6.80
2019-05-26T10:19:52.015Z,6.30
2019-05-26T10:22:20.686Z,6.33
2019-05-26T10:24:50.563Z,5.40
2019-05-26T10:27:18.957Z,5.70
2019-05-26T10:29:48.801Z,4.73
2019-05-26T10:32:17.219Z,4.40
2019-05-26T10:34:45.634Z,5.23
2019-05-26T10:37:13.988Z,4.80
2019-05-26T10:39:45.039Z,4.17
2019-05-26T10:42:12.748Z,4.97
2019-05-26T10:44:41.097Z,4.60
2019-05-26T10:47:09.494Z,4.53
2019-05-26T10:49:40.810Z,4.70
2019-05-26T10:52:09.778Z,4.80
2019-05-26T10:54:38.195Z,4.83
2019-05-26T10:57:06.991Z,4.53
2019-05-26T10:59:35.346Z,5.00
2019-05-26T11:02:03.796Z,4.30
2019-05-26T11:04:32.486Z,4.43
2019-05-26T11:07:00.822Z,3.87
2019-05-26T11:09:29.167Z,3.50
2019-05-26T11:11:57.951Z,4.10
2019-05-26T11:14:26.718Z,3.37
2019-05-26T11:16:56.436Z,3.40
2019-05-26T11:19:25.104Z,3.33
2019-05-26T11:21:53.473Z,3.33
2019-05-26T11:24:21.804Z,3.53
2019-05-26T11:26:50.159Z,3.90
2019-05-26T11:29:18.558Z,3.20
2019-05-26T11:31:46.968Z,3.37
2019-05-26T11:34:15.302Z,3.70
2019-05-26T11:36:43.977Z,3.40
2019-05-26T11:39:12.322Z,2.60
2019-05-26T11:41:40.944Z,4.13
2019-05-26T11:44:17.661Z,3.40
2019-05-26T11:46:39.355Z,2.50
2019-05-26T11:49:07.678Z,2.43
2019-05-26T11:51:36.015Z,2.23
2019-05-26T11:54:04.792Z,2.80
2019-05-26T11:56:33.127Z,2.83
2019-05-26T11:59:01.444Z,1.90
2019-05-26T12:01:30.921Z,3.00
2019-05-26T12:03:59.354Z,2.33
2019-05-26T12:06:27.735Z,2.47
2019-05-26T12:08:56.048Z,2.10
2019-05-26T12:11:24.730Z,2.60
2019-05-26T12:13:53.107Z,2.53
2019-05-26T12:16:21.579Z,2.23
2019-05-26T12:18:49.960Z,2.33
2019-05-26T12:21:18.406Z,2.23
2019-05-26T12:23:46.790Z,2.23
2019-05-26T12:26:15.485Z,2.60
2019-05-26T12:28:43.819Z,1.93
2019-05-26T12:31:12.194Z,2.20
2019-05-26T12:33:40.832Z,3.00
2019-05-26T12:36:09.175Z,2.80
2019-05-26T12:38:50.598Z,2.60
2019-05-26T12:41:19.871Z,3.00
2019-05-26T12:43:48.247Z,3.07
2019-05-26T12:46:16.731Z,2.33
2019-05-26T12:48:45.107Z,2.80
2019-05-26T12:51:13.455Z,2.47
2019-05-26T12:53:41.787Z,2.33
2019-05-26T12:56:10.236Z,2.67
2019-05-26T12:58:38.579Z,2.70
2019-05-26T13:01:07.198Z,2.90
2019-05-26T13:03:35.726Z,2.60
2019-05-26T13:06:04.553Z,2.87
2019-05-26T13:08:32.986Z,2.30
2019-05-26T13:11:01.903Z,2.87
2019-05-26T13:13:30.718Z,2.70
2019-05-26T13:15:59.471Z,2.73
2019-05-26T13:18:28.250Z,2.90
2019-05-26T13:20:56.932Z,2.83
2019-05-26T13:23:25.628Z,2.97
2019-05-26T13:25:54.024Z,2.07
2019-05-26T13:28:22.442Z,2.53
2019-05-26T13:30:51.099Z,3.30
2019-05-26T13:33:19.572Z,2.77
2019-05-26T13:35:47.974Z,2.73
2019-05-26T13:38:16.413Z,3.00
2019-05-26T13:40:44.732Z,2.80
2019-05-26T13:43:13.491Z,3.00
2019-05-26T13:45:41.835Z,2.77
2019-05-26T13:48:10.453Z,2.70
2019-05-26T13:50:38.807Z,3.23
2019-05-26T13:53:07.230Z,4.30
2019-05-26T13:55:36.026Z,3.43
2019-05-26T13:58:04.604Z,3.50
2019-05-26T14:00:33.054Z,2.90
2019-05-26T14:03:01.504Z,2.97
2019-05-26T14:05:30.016Z,3.10
2019-05-26T14:07:58.358Z,2.97
2019-05-26T14:10:31.352Z,3.10
2019-05-26T14:12:59.797Z,3.17
2019-05-26T14:15:37.273Z,2.70
2019-05-26T14:17:59.179Z,3.43
2019-05-26T14:20:34.318Z,3.40
2019-05-26T14:23:03.587Z,2.80
2019-05-26T14:25:31.979Z,2.87
2019-05-26T14:28:02.045Z,2.97
2019-05-26T14:30:30.392Z,2.93
2019-05-26T14:32:58.779Z,2.83
2019-05-26T14:35:27.507Z,3.60
2019-05-26T14:37:55.874Z,3.20
2019-05-26T14:40:24.318Z,3.27
2019-05-26T14:42:52.646Z,3.37
2019-05-26T14:45:21.257Z,2.57
2019-05-26T14:47:49.614Z,2.53
2019-05-26T14:50:18.910Z,4.00
2019-05-26T14:52:47.219Z,2.87
2019-05-26T14:55:16.047Z,2.80
2019-05-26T14:57:44.508Z,3.53
2019-05-26T15:00:13.552Z,2.97
2019-05-26T15:02:41.903Z,3.00
2019-05-26T15:05:10.651Z,2.97
2019-05-26T15:07:39.001Z,2.97
2019-05-26T15:10:08.096Z,2.97
2019-05-26T15:12:36.482Z,2.80
2019-05-26T15:15:05.091Z,2.93
2019-05-26T15:17:33.431Z,3.30
2019-05-26T15:20:01.758Z,3.43
2019-05-26T15:22:30.511Z,3.40
2019-05-26T15:25:03.185Z,3.23
2019-05-26T15:27:31.525Z,2.60
2019-05-26T15:29:59.902Z,3.60
2019-05-26T15:32:28.298Z,2.97
2019-05-26T15:34:56.914Z,2.97
2019-05-26T15:37:25.607Z,3.50
2019-05-26T15:39:54.283Z,3.10
2019-05-26T15:42:22.660Z,3.27
2019-05-26T15:44:51.190Z,2.63
2019-05-26T15:47:19.649Z,3.20
2019-05-26T15:49:47.978Z,3.00
2019-05-26T15:52:16.451Z,3.30
2019-05-26T15:54:44.928Z,2.67
2019-05-26T15:57:13.563Z,3.47
2019-05-26T15:59:41.927Z,3.07
2019-05-26T16:02:10.311Z,3.10
2019-05-26T16:04:38.632Z,3.50
2019-05-26T16:07:07.330Z,2.83
2019-05-26T16:09:36.295Z,3.13
2019-05-26T16:12:04.666Z,2.73
2019-05-26T16:14:33.268Z,2.60
2019-05-26T16:17:01.713Z,2.43
2019-05-26T16:19:30.321Z,2.97
2019-05-26T16:21:58.753Z,2.30
2019-05-26T16:24:27.133Z,2.80
2019-05-26T16:26:55.538Z,2.77
2019-05-26T16:29:23.904Z,2.30
2019-05-26T16:31:52.640Z,2.33
2019-05-26T16:34:21.041Z,2.50
2019-05-26T16:36:49.350Z,2.93
2019-05-26T16:39:18.078Z,2.27
2019-05-26T16:41:46.387Z,2.17
2019-05-26T16:44:14.922Z,2.90
2019-05-26T16:46:55.479Z,2.67
2019-05-26T16:49:13.779Z,2.60
2019-05-26T16:51:42.218Z,2.80
2019-05-26T16:54:10.574Z,3.00
2019-05-26T16:56:38.978Z,2.20
2019-05-26T16:59:07.374Z,2.27
2019-05-26T17:01:35.779Z,2.90
2019-05-26T17:04:04.563Z,2.13
2019-05-26T17:06:33.184Z,3.07
2019-05-26T17:09:01.602Z,2.60
2019-05-26T17:11:30.014Z,1.93
2019-05-26T17:13:59.848Z,2.20
2019-05-26T17:16:28.207Z,2.63
2019-05-26T17:18:56.574Z,2.10
2019-05-26T17:21:25.257Z,2.43
2019-05-26T17:23:53.574Z,2.67
2019-05-26T17:26:22.007Z,2.13
2019-05-26T17:28:50.339Z,2.37
2019-05-26T17:31:18.818Z,2.53
2019-05-26T17:33:47.141Z,2.50
2019-05-26T17:36:15.511Z,2.87
2019-05-26T17:38:44.223Z,2.57
2019-05-26T17:41:12.826Z,2.40
2019-05-26T17:43:41.199Z,2.37
2019-05-26T17:46:09.666Z,2.93
2019-05-26T17:48:38.010Z,3.17
2019-05-26T17:51:06.686Z,3.30
2019-05-26T17:53:35.279Z,3.10
2019-05-26T17:56:03.627Z,2.43
2019-05-26T17:58:31.947Z,2.97
2019-05-26T18:01:00.358Z,2.90
2019-05-26T18:03:28.667Z,2.60
2019-05-26T18:05:57.086Z,2.90
2019-05-26T18:08:25.509Z,2.83
2019-05-26T18:10:53.870Z,2.67
2019-05-26T18:13:22.199Z,2.63
2019-05-26T18:15:50.637Z,3.27
2019-05-26T18:18:19.343Z,2.87
2019-05-26T18:20:47.767Z,2.87
2019-05-26T18:23:16.199Z,2.63
2019-05-26T18:25:44.799Z,2.40
2019-05-26T18:28:13.170Z,2.90
2019-05-26T18:30:41.548Z,2.70
2019-05-26T18:33:09.899Z,2.67
2019-05-26T18:35:38.587Z,2.50
2019-05-26T18:38:06.994Z,2.70
2019-05-26T18:40:35.336Z,2.70
2019-05-26T18:43:03.667Z,2.80
2019-05-26T18:45:32.043Z,2.60
2019-05-26T18:48:03.301Z,2.80
2019-05-26T18:50:30.790Z,2.30
2019-05-26T18:52:59.115Z,2.43
2019-05-26T18:55:28.543Z,2.70
2019-05-26T18:57:56.886Z,2.23
2019-05-26T19:00:30.704Z,2.10
2019-05-26T19:02:55.766Z,2.87
2019-05-26T19:05:32.822Z,2.80
2019-05-26T19:07:54.686Z,2.83
2019-05-26T19:10:23.166Z,3.50
2019-05-26T19:12:51.490Z,2.60
2019-05-26T19:15:19.836Z,2.53
2019-05-26T19:17:48.210Z,2.17
2019-05-26T19:20:17.377Z,3.13
2019-05-26T19:22:45.820Z,2.77
2019-05-26T19:25:14.238Z,3.00
2019-05-26T19:27:42.918Z,2.60
2019-05-26T19:30:11.530Z,2.30
2019-05-26T19:32:40.091Z,2.93
2019-05-26T19:35:08.714Z,2.97
2019-05-26T19:37:37.209Z,2.67
2019-05-26T19:40:06.231Z,2.50
2019-05-26T19:42:34.587Z,2.83
2019-05-26T19:45:02.927Z,2.90
2019-05-26T19:47:31.342Z,2.40
2019-05-26T19:49:59.765Z,2.30
2019-05-26T19:52:28.266Z,2.60
2019-05-26T19:54:56.683Z,2.60
2019-05-26T19:57:25.045Z,2.93
2019-05-26T19:59:53.392Z,2.40
2019-05-26T20:02:21.744Z,2.70
2019-05-26T20:04:50.138Z,2.63
2019-05-26T20:07:18.591Z,2.90
2019-05-26T20:09:47.040Z,3.30
2019-05-26T20:12:15.711Z,3.30
2019-05-26T20:14:44.358Z,2.80
2019-05-26T20:17:13.205Z,2.90
2019-05-26T20:19:41.714Z,3.20
2019-05-26T20:22:10.235Z,2.60
2019-05-26T20:24:39.014Z,3.43
2019-05-26T20:27:07.464Z,2.77
2019-05-26T20:29:36.198Z,3.27
2019-05-26T20:32:04.553Z,2.57
2019-05-26T20:34:32.882Z,2.97
2019-05-26T20:37:01.327Z,2.87
2019-05-26T20:39:29.710Z,2.97
2019-05-26T20:41:58.446Z,2.70
2019-05-26T20:44:26.779Z,2.83
2019-05-26T20:46:55.457Z,3.27
2019-05-26T20:49:23.796Z,2.53
2019-05-26T20:51:52.423Z,2.63
2019-05-26T20:54:20.939Z,2.43
2019-05-26T20:56:49.269Z,2.90
2019-05-26T20:59:17.655Z,2.97
2019-05-26T21:01:45.998Z,3.17
2019-05-26T21:04:16.733Z,2.50
2019-05-26T21:06:45.126Z,2.80
2019-05-26T21:09:13.482Z,2.70
2019-05-26T21:11:42.084Z,2.87
2019-05-26T21:14:10.475Z,2.60
2019-05-26T21:16:39.083Z,2.10
2019-05-26T21:19:07.685Z,2.40
2019-05-26T21:21:36.078Z,1.73
2019-05-26T21:24:04.850Z,2.37
2019-05-26T21:26:33.750Z,2.40
2019-05-26T21:29:02.474Z,2.27
2019-05-26T21:31:30.879Z,2.60
2019-05-26T21:33:59.608Z,2.50
2019-05-26T21:36:28.270Z,2.50
2019-05-26T21:38:56.600Z,2.93
2019-05-26T21:41:24.937Z,2.57
2019-05-26T21:43:53.346Z,3.30
2019-05-26T21:46:22.030Z,2.70
2019-05-26T21:48:50.375Z,2.50
2019-05-26T21:51:18.751Z,3.03
2019-05-26T21:53:47.087Z,3.17
2019-05-26T21:56:15.411Z,2.90
2019-05-26T21:58:43.763Z,3.43
2019-05-26T22:01:12.090Z,2.90
2019-05-26T22:03:40.488Z,2.97
2019-05-26T22:06:09.109Z,3.60
2019-05-26T22:08:37.456Z,2.70
2019-05-26T22:11:05.782Z,3.50
2019-05-26T22:13:34.106Z,3.20
2019-05-26T22:16:02.792Z,3.07
2019-05-26T22:18:31.452Z,3.07
2019-05-26T22:21:00.036Z,3.30
2019-05-26T22:23:28.388Z,2.80
2019-05-26T22:25:56.782Z,2.67
2019-05-26T22:28:25.149Z,3.00
2019-05-26T22:30:53.474Z,3.47
2019-05-26T22:33:21.819Z,3.47
2019-05-26T22:35:50.156Z,2.73
2019-05-26T22:38:18.494Z,3.07
2019-05-26T22:40:47.117Z,2.90
2019-05-26T22:43:15.467Z,3.10
2019-05-26T22:45:43.779Z,3.27
2019-05-26T22:48:12.544Z,3.30
2019-05-26T22:50:40.863Z,3.30
2019-05-26T22:53:09.190Z,3.40
2019-05-26T22:55:37.876Z,2.93
2019-05-26T22:58:06.213Z,3.60
2019-05-26T23:00:34.628Z,3.50
2019-05-26T23:03:03.115Z,3.40
2019-05-26T23:05:32.007Z,3.70
2019-05-26T23:08:00.326Z,3.33
2019-05-26T23:10:28.677Z,3.67
2019-05-26T23:12:57.004Z,3.30
2019-05-26T23:15:25.418Z,3.33
2019-05-26T23:17:53.771Z,3.53
2019-05-26T23:20:22.209Z,3.67
2019-05-26T23:22:50.533Z,3.50
2019-05-26T23:25:18.942Z,4.30
2019-05-26T23:27:47.634Z,3.47
2019-05-26T23:30:16.648Z,3.27
2019-05-26T23:32:45.090Z,3.43
2019-05-26T23:35:13.493Z,4.00
2019-05-26T23:37:41.917Z,4.10
2019-05-26T23:40:10.667Z,3.70
2019-05-26T23:42:39.035Z,4.07
2019-05-26T23:45:07.823Z,4.13
2019-05-26T23:47:36.178Z,3.87
2019-05-26T23:50:04.675Z,3.60
2019-05-26T23:52:33.295Z,4.87
2019-05-26T23:55:01.990Z,4.73
2019-05-26T23:57:30.374Z,4.90
2019-05-26T23:59:58.774Z,3.87
